Aegean Tiffany — SVAE9 — position and weather

sailwx.info

Track history (hours):
 
Tides and Currents Weather Stations Pressure Air Temp Water Temp Dewpoint Dewpoint Depression Visibility Wind Speed Wind Dir Waves Ship Positions

Aegean Tiffany

Last reported at 2015-Jun-27 20:12 UTC. Time now 2015-Jun-29 23:06 UTC.
Position N 37°54' E 023°06'.

Length 80 m; draft 5.6 m.

Type: Tanker. MMSI: 240870000.

Date/timePositionNaut miles runAvg speedWind from/ knotsBaromVisibWave heightAir tempDewpointWater temp
2015-Jun-27 20:12N 37°54' E 023°06'6 7.9
2015-Jun-27 19:28N 37°55' E 023°13'7 7.9
2015-Jun-27 18:32N 37°57' E 023°22'6 6.0
2015-Jun-27 17:31N 38°01' E 023°28'3 3.6
2015-Jun-27 16:33N 38°02' E 023°32'0 0.0
2015-Jun-27 15:33N 38°02' E 023°32'0 0.0
2015-Jun-27 08:28N 38°02' E 023°32'1 0.9
2015-Jun-27 07:33N 38°02' E 023°31'0 0.3
2015-Jun-27 06:33N 38°02' E 023°31'0 0.0
2015-Jun-27 05:33N 38°02' E 023°31'0 0.0
2015-Jun-27 04:33N 38°02' E 023°31'0 0.0
2015-Jun-27 03:33N 38°02' E 023°31'0 0.0
2015-Jun-27 02:33N 38°02' E 023°31'0 0.0
2015-Jun-27 01:33N 38°02' E 023°31'0 0.0
2015-Jun-27 00:33N 38°02' E 023°31'0 0.0
2015-Jun-26 23:33N 38°02' E 023°31'0 0.0
2015-Jun-26 22:33N 38°02' E 023°31'0 0.0
2015-Jun-26 21:33N 38°02' E 023°31'0 0.0
2015-Jun-26 20:33N 38°02' E 023°31'1 1.0
2015-Jun-26 19:33N 38°02' E 023°32'0 0.0
2015-Jun-26 18:33N 38°02' E 023°32'1 0.0
2015-Jun-25 10:10N 38°01' E 023°32'4 7.0
2015-Jun-25 09:33N 37°57' E 023°34'0 0.0
2015-Jun-25 08:33N 37°57' E 023°34'0 0.0
2015-Jun-25 07:33N 37°57' E 023°34'4 4.4
2015-Jun-25 06:33N 38°01' E 023°32'1 1.1
2015-Jun-25 05:33N 38°02' E 023°32'0 0.0
2015-Jun-25 04:33N 38°02' E 023°32'2 1.9
2015-Jun-25 03:33N 38°01' E 023°30'4 4.5
2015-Jun-25 02:33N 37°58' E 023°26'8 8.3
2015-Jun-25 01:33N 37°56' E 023°16'8 8.4
2015-Jun-25 00:33N 37°54' E 023°05'  
2015-Jun-18 20:16N 37°54' E 023°06'6 7.9
2015-Jun-18 19:33N 37°55' E 023°13'8 7.6
2015-Jun-18 18:33N 37°57' E 023°23'6 6.2
2015-Jun-18 17:33N 38°01' E 023°29'3 2.8
2015-Jun-18 16:33N 38°02' E 023°32'0 0.0
2015-Jun-18 09:33N 38°02' E 023°32'0 0.0
2015-Jun-18 08:33N 38°02' E 023°32'1 1.0
2015-Jun-18 07:33N 38°02' E 023°31'0 0.0
2015-Jun-18 06:33N 38°02' E 023°31'0 0.0
2015-Jun-18 05:33N 38°02' E 023°31'0 0.0
2015-Jun-18 04:33N 38°02' E 023°31'0 0.0
2015-Jun-18 03:33N 38°02' E 023°31'0 0.0
2015-Jun-18 02:33N 38°02' E 023°31'0 0.0
2015-Jun-18 01:33N 38°02' E 023°31'0 0.0
2015-Jun-18 00:33N 38°02' E 023°31'0 0.0
2015-Jun-17 23:33N 38°02' E 023°31'0 0.0
2015-Jun-17 22:33N 38°02' E 023°31'0 0.0
2015-Jun-17 21:33N 38°02' E 023°31'0 0.3
2015-Jun-17 20:33N 38°02' E 023°31'  
Track history (hours):
 
Tides and Currents Weather Stations Pressure Air Temp Water Temp Dewpoint Dewpoint Depression Visibility Wind Speed Wind Dir Waves Ship Positions

Aegean Tiffany

Last reported at 2015-Jun-27 20:12 UTC. Time now 2015-Jun-29 23:06 UTC.
Position N 37°54' E 023°06'.

Length 80 m; draft 5.6 m.

Type: Tanker. MMSI: 240870000.

Date/timePositionNaut miles runAvg speedWind from/ knotsBaromVisibWave heightAir tempDewpointWater temp
2015-Jun-27 20:12N 37°54' E 023°06'6 7.9
2015-Jun-27 19:28N 37°55' E 023°13'7 7.9
2015-Jun-27 18:32N 37°57' E 023°22'6 6.0
2015-Jun-27 17:31N 38°01' E 023°28'3 3.6
2015-Jun-27 16:33N 38°02' E 023°32'0 0.0
2015-Jun-27 15:33N 38°02' E 023°32'0 0.0
2015-Jun-27 08:28N 38°02' E 023°32'1 0.9
2015-Jun-27 07:33N 38°02' E 023°31'0 0.3
2015-Jun-27 06:33N 38°02' E 023°31'0 0.0
2015-Jun-27 05:33N 38°02' E 023°31'0 0.0
2015-Jun-27 04:33N 38°02' E 023°31'0 0.0
2015-Jun-27 03:33N 38°02' E 023°31'0 0.0
2015-Jun-27 02:33N 38°02' E 023°31'0 0.0
2015-Jun-27 01:33N 38°02' E 023°31'0 0.0
2015-Jun-27 00:33N 38°02' E 023°31'0 0.0
2015-Jun-26 23:33N 38°02' E 023°31'0 0.0
2015-Jun-26 22:33N 38°02' E 023°31'0 0.0
2015-Jun-26 21:33N 38°02' E 023°31'0 0.0
2015-Jun-26 20:33N 38°02' E 023°31'1 1.0
2015-Jun-26 19:33N 38°02' E 023°32'0 0.0
2015-Jun-26 18:33N 38°02' E 023°32'1 0.0
2015-Jun-25 10:10N 38°01' E 023°32'4 7.0
2015-Jun-25 09:33N 37°57' E 023°34'0 0.0
2015-Jun-25 08:33N 37°57' E 023°34'0 0.0
2015-Jun-25 07:33N 37°57' E 023°34'4 4.4
2015-Jun-25 06:33N 38°01' E 023°32'1 1.1
2015-Jun-25 05:33N 38°02' E 023°32'0 0.0
2015-Jun-25 04:33N 38°02' E 023°32'2 1.9
2015-Jun-25 03:33N 38°01' E 023°30'4 4.5
2015-Jun-25 02:33N 37°58' E 023°26'8 8.3
2015-Jun-25 01:33N 37°56' E 023°16'8 8.4
2015-Jun-25 00:33N 37°54' E 023°05'  
2015-Jun-18 20:16N 37°54' E 023°06'6 7.9
2015-Jun-18 19:33N 37°55' E 023°13'8 7.6
2015-Jun-18 18:33N 37°57' E 023°23'6 6.2
2015-Jun-18 17:33N 38°01' E 023°29'3 2.8
2015-Jun-18 16:33N 38°02' E 023°32'0 0.0
2015-Jun-18 09:33N 38°02' E 023°32'0 0.0
2015-Jun-18 08:33N 38°02' E 023°32'1 1.0
2015-Jun-18 07:33N 38°02' E 023°31'0 0.0
2015-Jun-18 06:33N 38°02' E 023°31'0 0.0
2015-Jun-18 05:33N 38°02' E 023°31'0 0.0
2015-Jun-18 04:33N 38°02' E 023°31'0 0.0
2015-Jun-18 03:33N 38°02' E 023°31'0 0.0
2015-Jun-18 02:33N 38°02' E 023°31'0 0.0
2015-Jun-18 01:33N 38°02' E 023°31'0 0.0
2015-Jun-18 00:33N 38°02' E 023°31'0 0.0
2015-Jun-17 23:33N 38°02' E 023°31'0 0.0
2015-Jun-17 22:33N 38°02' E 023°31'0 0.0
2015-Jun-17 21:33N 38°02' E 023°31'0 0.3
2015-Jun-17 20:33N 38°02' E 023°31'  

Dump ship's entire track history